createdAt,value
2022-08-18T00:02:03.704Z,87.43
2022-08-18T00:04:35.771Z,70.03
2022-08-18T00:07:04.843Z,92.15
2022-08-18T00:09:35.822Z,89.97
2022-08-18T00:12:06.872Z,69.07
2022-08-18T00:14:35.171Z,86.75
2022-08-18T00:17:03.034Z,75.25
2022-08-18T00:19:47.409Z,81.03
2022-08-18T00:22:18.794Z,85.15
2022-08-18T00:24:52.467Z,69.15
2022-08-18T00:27:23.125Z,99.45
2022-08-18T00:29:52.372Z,99.85
2022-08-18T00:32:22.969Z,100.03
2022-08-18T00:34:50.994Z,100.53
2022-08-18T00:37:19.065Z,99.15
2022-08-18T00:39:48.368Z,102.70
2022-08-18T00:42:27.664Z,103.68
2022-08-18T00:45:00.998Z,77.80
2022-08-18T00:47:36.393Z,84.90
2022-08-18T00:50:15.056Z,78.72
2022-08-18T00:52:48.019Z,92.28
2022-08-18T00:55:19.408Z,78.50
2022-08-18T00:57:49.728Z,94.83
2022-08-18T01:00:18.123Z,96.40
2022-08-18T01:02:55.532Z,105.93
2022-08-18T01:05:30.441Z,92.40
2022-08-18T01:07:58.407Z,94.53
2022-08-18T01:10:27.853Z,85.20
2022-08-18T01:12:58.528Z,96.60
2022-08-18T01:15:30.454Z,92.60
2022-08-18T01:18:17.573Z,84.10
2022-08-18T01:21:16.034Z,80.40
2022-08-18T01:23:46.678Z,88.18
2022-08-18T01:26:16.761Z,96.63
2022-08-18T01:28:46.491Z,97.55
2022-08-18T01:31:32.426Z,81.20
2022-08-18T01:34:01.139Z,100.93
2022-08-18T01:36:29.832Z,102.47
2022-08-18T01:38:58.979Z,94.55
2022-08-18T01:41:30.267Z,79.55
2022-08-18T01:44:00.137Z,94.85
2022-08-18T01:46:29.552Z,96.80
2022-08-18T01:49:01.226Z,84.45
2022-08-18T01:51:39.327Z,95.35
2022-08-18T01:54:12.821Z,96.13
2022-08-18T01:56:42.365Z,77.82
2022-08-18T01:59:14.612Z,99.35
2022-08-18T02:04:36.148Z,99.50
2022-08-18T02:07:07.665Z,109.90
2022-08-18T02:09:38.402Z,111.75
2022-08-18T02:12:07.994Z,102.70
2022-08-18T02:14:36.799Z,111.93
2022-08-18T02:17:07.698Z,105.85
2022-08-18T02:19:36.699Z,94.68
2022-08-18T02:22:05.987Z,112.72
2022-08-18T02:24:33.729Z,99.28
2022-08-18T02:27:02.882Z,109.40
2022-08-18T02:29:30.642Z,94.95
2022-08-18T02:31:58.519Z,96.55
2022-08-18T02:34:26.563Z,113.40
2022-08-18T02:36:54.622Z,127.07
2022-08-18T02:39:22.507Z,106.53
2022-08-18T02:41:50.336Z,112.13
2022-08-18T02:44:19.563Z,128.50
2022-08-18T02:46:47.390Z,127.25
2022-08-18T02:49:15.163Z,124.93
2022-08-18T02:51:46.263Z,94.45
2022-08-18T02:54:14.093Z,113.45
2022-08-18T02:56:42.637Z,118.45
2022-08-18T02:59:13.344Z,107.90
2022-08-18T03:01:45.939Z,114.28
2022-08-18T03:04:17.556Z,123.45
2022-08-18T03:06:46.350Z,107.77
2022-08-18T03:09:16.690Z,97.45
2022-08-18T03:11:44.856Z,108.97
2022-08-18T03:14:13.452Z,90.93
2022-08-18T03:16:53.667Z,93.22
2022-08-18T03:19:23.783Z,118.38
2022-08-18T03:21:52.786Z,95.30
2022-08-18T03:24:22.742Z,104.07
2022-08-18T03:26:52.944Z,90.15
2022-08-18T03:29:21.513Z,89.45
2022-08-18T03:31:51.490Z,102.28
2022-08-18T03:34:21.392Z,86.13
2022-08-18T03:36:49.904Z,81.25
2022-08-18T03:39:19.118Z,88.40
2022-08-18T03:41:59.458Z,79.75
2022-08-18T03:44:30.750Z,89.53
2022-08-18T03:47:01.469Z,103.00
2022-08-18T03:49:29.656Z,103.95
2022-08-18T03:52:00.066Z,108.93
2022-08-18T03:54:28.505Z,100.90
2022-08-18T03:56:56.308Z,86.07
2022-08-18T03:59:27.035Z,103.30
2022-08-18T04:01:56.329Z,100.78
2022-08-18T04:04:27.597Z,99.57
2022-08-18T04:06:58.450Z,103.25
2022-08-18T04:09:29.294Z,101.80
2022-08-18T04:11:57.976Z,82.78
2022-08-18T04:14:29.714Z,75.97
2022-08-18T04:16:58.491Z,80.18
2022-08-18T04:19:28.262Z,80.55
2022-08-18T04:21:58.188Z,92.40
2022-08-18T04:24:28.011Z,94.97
2022-08-18T04:26:58.327Z,84.07
2022-08-18T04:29:26.133Z,85.80
2022-08-18T04:31:53.911Z,101.10
2022-08-18T04:34:23.437Z,81.65
2022-08-18T04:36:54.575Z,89.93
2022-08-18T04:39:23.455Z,98.32
2022-08-18T04:41:51.945Z,82.50
2022-08-18T04:44:21.617Z,96.53
2022-08-18T04:46:52.779Z,88.65
2022-08-18T04:49:26.114Z,91.82
2022-08-18T04:52:30.983Z,96.82
2022-08-18T04:55:03.635Z,102.68
2022-08-18T04:57:34.842Z,88.57
2022-08-18T05:00:04.125Z,93.75
2022-08-18T05:02:33.026Z,96.03
2022-08-18T05:05:04.099Z,96.10
2022-08-18T05:07:33.675Z,94.85
2022-08-18T05:10:01.692Z,98.68
2022-08-18T05:12:29.720Z,112.18
2022-08-18T05:14:57.968Z,111.72
2022-08-18T05:17:30.576Z,101.38
2022-08-18T05:20:00.047Z,106.10
2022-08-18T05:22:31.019Z,109.20
2022-08-18T05:25:01.038Z,95.20
2022-08-18T05:27:33.304Z,103.10
2022-08-18T05:30:01.197Z,101.93
2022-08-18T05:32:47.662Z,105.13
2022-08-18T05:35:23.226Z,94.80
2022-08-18T05:38:27.977Z,98.22
2022-08-18T05:41:08.619Z,88.85
2022-08-18T05:43:51.381Z,61.25
2022-08-18T05:46:21.944Z,77.43
2022-08-18T05:48:50.035Z,89.60
2022-08-18T05:51:22.886Z,61.03
2022-08-18T05:54:08.032Z,57.85
2022-08-18T05:56:48.901Z,75.05
2022-08-18T05:59:23.685Z,70.15
2022-08-18T06:01:57.646Z,54.55
2022-08-18T06:04:34.339Z,51.08
2022-08-18T06:07:06.516Z,51.75
2022-08-18T06:12:22.632Z,57.10
2022-08-18T06:14:51.071Z,68.20
2022-08-18T06:17:36.811Z,59.45
2022-08-18T06:20:16.179Z,50.63
2022-08-18T06:22:59.617Z,61.47
2022-08-18T06:25:35.778Z,46.58
2022-08-18T06:28:10.969Z,47.75
2022-08-18T06:30:50.063Z,74.57
2022-08-18T06:33:36.049Z,45.83
2022-08-18T06:36:12.635Z,50.38
2022-08-18T06:38:57.828Z,56.72
2022-08-18T06:41:41.688Z,52.45
2022-08-18T06:44:14.833Z,60.42
2022-08-18T06:46:48.178Z,52.30
2022-08-18T06:49:30.169Z,45.00
2022-08-18T06:51:57.987Z,51.45
2022-08-18T06:54:31.332Z,45.90
2022-08-18T06:57:00.117Z,52.75
2022-08-18T06:59:31.612Z,51.15
2022-08-18T07:02:02.635Z,43.55
2022-08-18T07:04:39.889Z,45.35
2022-08-18T07:07:17.290Z,43.95
2022-08-18T07:09:45.398Z,46.00
2022-08-18T07:12:21.897Z,44.72
2022-08-18T07:14:53.042Z,43.65
2022-08-18T07:17:43.100Z,43.95
2022-08-18T07:20:21.391Z,34.13
2022-08-18T07:22:59.899Z,36.85
2022-08-18T07:25:32.075Z,30.73
2022-08-18T07:28:01.985Z,30.85
2022-08-18T07:30:35.978Z,37.40
2022-08-18T07:33:12.188Z,33.15
2022-08-18T07:35:46.018Z,30.17
2022-08-18T07:38:41.952Z,26.17
2022-08-18T07:41:20.210Z,30.13
2022-08-18T07:44:00.731Z,25.90
2022-08-18T07:46:37.613Z,25.00
2022-08-18T07:49:06.408Z,31.05
2022-08-18T07:51:45.968Z,22.63
2022-08-18T07:54:47.834Z,22.23
2022-08-18T07:57:20.070Z,21.92
2022-08-18T07:59:56.329Z,19.67
2022-08-18T08:02:35.436Z,23.13
2022-08-18T08:05:11.999Z,23.90
2022-08-18T08:07:47.196Z,24.60
2022-08-18T08:10:29.745Z,20.90
2022-08-18T08:13:09.282Z,22.10
2022-08-18T08:15:56.204Z,23.67
2022-08-18T08:18:37.932Z,15.80
2022-08-18T08:21:10.916Z,18.35
2022-08-18T08:23:47.597Z,27.42
2022-08-18T08:26:27.912Z,18.25
2022-08-18T08:29:08.953Z,18.70
2022-08-18T08:31:47.061Z,14.50
2022-08-18T08:34:22.175Z,21.38
2022-08-18T08:36:54.939Z,18.67
2022-08-18T08:39:28.712Z,19.10
2022-08-18T08:42:31.459Z,22.25
2022-08-18T08:45:00.971Z,17.25
2022-08-18T08:47:33.910Z,16.65
2022-08-18T08:50:05.736Z,18.20
2022-08-18T08:52:43.415Z,17.65
2022-08-18T08:55:16.616Z,13.30
2022-08-18T08:57:51.513Z,19.23
2022-08-18T09:00:20.083Z,19.58
2022-08-18T09:03:14.695Z,19.02
2022-08-18T09:05:56.769Z,13.77
2022-08-18T09:08:52.012Z,17.63
2022-08-18T09:11:55.206Z,18.23
2022-08-18T09:14:46.401Z,16.38
2022-08-18T09:17:57.800Z,16.83
2022-08-18T09:20:51.211Z,15.25
2022-08-18T09:23:22.049Z,17.08
2022-08-18T09:25:52.445Z,14.95
2022-08-18T09:28:24.791Z,14.85
2022-08-18T09:31:19.892Z,18.90
2022-08-18T09:34:37.378Z,19.27
2022-08-18T09:37:17.453Z,17.75
2022-08-18T09:40:14.572Z,16.33
2022-08-18T09:42:50.365Z,16.13
2022-08-18T09:45:55.338Z,15.10
2022-08-18T09:48:28.284Z,14.15
2022-08-18T09:51:20.767Z,14.27
2022-08-18T09:54:24.876Z,13.18
2022-08-18T09:57:22.420Z,13.68
2022-08-18T10:00:26.532Z,11.93
2022-08-18T10:03:14.088Z,11.57
2022-08-18T10:12:21.623Z,15.73
2022-08-18T10:15:26.978Z,17.75
2022-08-18T10:18:33.269Z,19.92
2022-08-18T10:21:09.782Z,18.83
2022-08-18T10:24:02.708Z,20.20
2022-08-18T10:27:08.203Z,19.35
2022-08-18T10:30:01.843Z,20.67
2022-08-18T10:32:44.388Z,18.13
2022-08-18T10:35:58.793Z,20.77
2022-08-18T10:38:37.165Z,17.92
2022-08-18T10:41:15.739Z,18.95
2022-08-18T10:43:55.846Z,17.25
2022-08-18T10:46:31.915Z,17.30
2022-08-18T10:49:09.366Z,17.38
2022-08-18T10:52:01.418Z,16.45
2022-08-18T10:54:51.659Z,13.38
2022-08-18T10:57:30.550Z,12.65
2022-08-18T11:00:04.034Z,10.82
2022-08-18T11:03:02.602Z,11.25
2022-08-18T11:05:43.179Z,12.32
2022-08-18T11:08:17.798Z,10.68
2022-08-18T11:11:27.621Z,11.15
2022-08-18T11:13:50.790Z,9.50
2022-08-18T11:16:31.876Z,10.48
2022-08-18T11:19:18.185Z,10.43
2022-08-18T11:21:51.427Z,10.90
2022-08-18T11:24:25.058Z,8.88
2022-08-18T11:26:55.020Z,10.35
2022-08-18T11:29:33.191Z,11.88
2022-08-18T11:32:11.056Z,10.07
2022-08-18T11:41:08.802Z,10.57
2022-08-18T11:43:30.022Z,9.73
2022-08-18T11:46:16.602Z,9.95
2022-08-18T11:48:52.891Z,9.88
2022-08-18T11:51:27.336Z,10.10
2022-08-18T11:54:00.119Z,10.07
2022-08-18T11:56:32.345Z,9.65
2022-08-18T11:59:06.210Z,11.80
2022-08-18T12:01:42.262Z,10.63
2022-08-18T12:04:22.717Z,10.35
2022-08-18T12:06:59.683Z,9.80
2022-08-18T12:10:17.044Z,10.02
2022-08-18T12:12:28.217Z,8.82
2022-08-18T12:17:52.167Z,9.38
2022-08-18T12:20:20.859Z,9.05
2022-08-18T12:22:50.446Z,8.07
2022-08-18T12:25:24.492Z,8.82
2022-08-18T12:27:52.885Z,11.57
2022-08-18T12:30:20.783Z,9.68
2022-08-18T12:35:36.420Z,8.98
2022-08-18T12:38:14.016Z,8.43
2022-08-18T12:40:42.826Z,7.85
2022-08-18T12:43:10.767Z,7.75
2022-08-18T12:45:39.236Z,8.63
2022-08-18T12:48:08.092Z,7.68
2022-08-18T12:53:30.507Z,9.23
2022-08-18T12:58:55.514Z,7.65
2022-08-18T13:01:25.008Z,7.70
2022-08-18T13:07:00.097Z,5.95
2022-08-18T13:09:48.008Z,8.38
2022-08-18T13:12:19.932Z,6.97
2022-08-18T13:14:49.828Z,5.47
2022-08-18T13:17:32.861Z,7.07
2022-08-18T13:20:05.162Z,7.05
2022-08-18T13:22:33.511Z,5.97
2022-08-18T13:25:05.255Z,6.40
2022-08-18T13:30:29.635Z,6.20
2022-08-18T13:33:00.251Z,6.75
2022-08-18T13:35:38.396Z,6.20
2022-08-18T13:38:18.914Z,7.40
2022-08-18T13:40:51.823Z,6.45
2022-08-18T13:43:25.914Z,6.40
2022-08-18T13:45:56.302Z,6.30
2022-08-18T13:48:25.538Z,6.95
2022-08-18T13:50:55.698Z,6.18
2022-08-18T13:53:26.321Z,6.38
2022-08-18T13:55:59.723Z,6.60
2022-08-18T13:58:29.009Z,6.00
2022-08-18T14:03:48.223Z,6.63
2022-08-18T14:06:22.194Z,6.43
2022-08-18T14:08:51.520Z,6.80
2022-08-18T14:11:23.666Z,6.00
2022-08-18T14:13:54.156Z,5.78
2022-08-18T14:16:22.926Z,6.22
2022-08-18T14:19:12.889Z,6.53
2022-08-18T14:22:02.998Z,6.20
2022-08-18T14:24:52.186Z,5.75
2022-08-18T14:31:11.486Z,5.78
2022-08-18T14:33:50.480Z,5.55
2022-08-18T14:36:20.554Z,5.13
2022-08-18T14:38:58.290Z,5.55
2022-08-18T14:41:27.362Z,5.82
2022-08-18T14:44:12.554Z,6.40
2022-08-18T14:46:42.030Z,6.78
2022-08-18T14:49:28.123Z,5.80
2022-08-18T14:51:57.313Z,5.57
2022-08-18T14:54:28.328Z,5.63
2022-08-18T14:56:57.447Z,5.45
2022-08-18T14:59:28.402Z,4.93
2022-08-18T15:01:56.202Z,6.82
2022-08-18T15:04:24.170Z,5.28
2022-08-18T15:06:56.069Z,5.38
2022-08-18T15:09:26.946Z,6.10
2022-08-18T15:11:56.737Z,6.18
2022-08-18T15:14:33.166Z,4.78
2022-08-18T15:17:02.843Z,4.85
2022-08-18T15:20:01.575Z,5.95
2022-08-18T15:22:35.929Z,6.85
2022-08-18T15:25:24.188Z,5.20
2022-08-18T15:27:53.003Z,5.72
2022-08-18T15:30:22.930Z,5.65
2022-08-18T15:32:51.267Z,6.95
2022-08-18T15:35:20.427Z,5.93
2022-08-18T15:37:51.430Z,5.75
2022-08-18T15:40:31.169Z,5.93
2022-08-18T15:43:09.757Z,5.82
2022-08-18T15:45:56.043Z,6.10
2022-08-18T15:48:27.103Z,6.55
2022-08-18T15:50:56.147Z,8.45
2022-08-18T15:53:29.769Z,6.32
2022-08-18T15:55:58.398Z,8.68
2022-08-18T15:58:31.998Z,6.32
2022-08-18T16:01:01.457Z,6.43
2022-08-18T16:03:50.011Z,6.18
2022-08-18T16:06:23.603Z,5.78
2022-08-18T16:08:55.856Z,5.70
2022-08-18T16:11:29.018Z,5.38
2022-08-18T16:13:59.169Z,5.60
2022-08-18T16:16:36.157Z,6.53
2022-08-18T16:19:05.845Z,5.63
2022-08-18T16:21:34.064Z,5.35
2022-08-18T16:24:01.794Z,5.00
2022-08-18T16:26:30.149Z,5.72
2022-08-18T16:29:01.300Z,5.32
2022-08-18T16:31:37.038Z,5.45
2022-08-18T16:34:05.822Z,5.28
2022-08-18T16:36:33.545Z,5.43
2022-08-18T16:39:26.028Z,5.47
2022-08-18T16:41:53.783Z,5.75
2022-08-18T16:44:21.664Z,5.05
2022-08-18T16:46:51.733Z,6.22
2022-08-18T16:49:20.800Z,5.32
2022-08-18T16:51:48.535Z,5.93
2022-08-18T16:54:16.397Z,5.28
2022-08-18T16:56:44.150Z,5.57
2022-08-18T17:02:20.029Z,5.45
2022-08-18T17:04:47.862Z,8.05
2022-08-18T17:07:15.632Z,5.55
2022-08-18T17:09:43.407Z,6.13
2022-08-18T17:12:11.305Z,6.80
2022-08-18T17:14:39.250Z,6.90
2022-08-18T17:17:10.427Z,7.05
2022-08-18T17:19:38.370Z,11.77
2022-08-18T17:22:08.103Z,8.77
2022-08-18T17:24:35.954Z,6.57
2022-08-18T17:27:25.842Z,6.97
2022-08-18T17:30:02.564Z,6.95
2022-08-18T17:35:15.900Z,7.60
2022-08-18T17:37:49.250Z,7.97
2022-08-18T17:40:21.602Z,6.25
2022-08-18T17:42:51.508Z,7.20
2022-08-18T17:45:21.939Z,7.88
2022-08-18T17:47:57.626Z,6.50
2022-08-18T17:50:46.730Z,7.07
2022-08-18T17:53:15.533Z,7.40
2022-08-18T17:55:48.353Z,6.93
2022-08-18T17:58:21.764Z,7.07
2022-08-18T18:00:49.549Z,7.30
2022-08-18T18:03:18.714Z,7.03
2022-08-18T18:05:54.182Z,6.90
2022-08-18T18:08:22.040Z,8.20
2022-08-18T18:11:07.640Z,6.45
2022-08-18T18:13:35.526Z,6.55
2022-08-18T18:16:21.690Z,7.70
2022-08-18T18:18:59.943Z,8.80
2022-08-18T18:21:55.368Z,7.30
2022-08-18T18:24:24.043Z,6.85
2022-08-18T18:26:53.192Z,7.60
2022-08-18T18:29:27.252Z,6.47
2022-08-18T18:32:00.482Z,6.47
2022-08-18T18:34:33.786Z,6.72
2022-08-18T18:37:03.092Z,7.25
2022-08-18T18:39:34.199Z,6.85
2022-08-18T18:42:20.464Z,7.32
2022-08-18T18:44:53.790Z,6.78
2022-08-18T18:47:39.977Z,6.05
2022-08-18T18:50:17.144Z,7.47
2022-08-18T18:52:52.429Z,8.90
2022-08-18T18:55:25.657Z,6.88
2022-08-18T18:58:07.999Z,6.50
2022-08-18T19:00:44.623Z,6.72
2022-08-18T19:03:28.556Z,6.47
2022-08-18T19:06:14.024Z,6.95
2022-08-18T19:08:50.876Z,7.50
2022-08-18T19:11:29.079Z,6.22
2022-08-18T19:14:07.529Z,6.50
2022-08-18T19:16:42.407Z,6.18
2022-08-18T19:19:36.729Z,6.18
2022-08-18T19:22:18.609Z,8.02
2022-08-18T19:24:56.109Z,7.65
2022-08-18T19:27:34.256Z,5.78
2022-08-18T19:30:06.961Z,8.55
2022-08-18T19:32:40.756Z,6.45
2022-08-18T19:35:12.824Z,6.18
2022-08-18T19:42:59.992Z,6.35
2022-08-18T19:45:35.506Z,6.72
2022-08-18T19:48:08.825Z,7.13
2022-08-18T19:50:43.419Z,6.07
2022-08-18T19:53:26.003Z,7.07
2022-08-18T19:56:29.433Z,6.65
2022-08-18T19:59:19.390Z,6.22
2022-08-18T20:02:04.994Z,9.02
2022-08-18T20:04:59.175Z,5.85
2022-08-18T20:08:03.173Z,7.15
2022-08-18T20:10:43.840Z,5.97
2022-08-18T20:13:33.851Z,6.40
2022-08-18T20:16:43.556Z,7.30
2022-08-18T20:19:39.590Z,7.00
2022-08-18T20:22:10.460Z,8.02
2022-08-18T20:24:52.127Z,7.53
2022-08-18T20:27:36.403Z,5.75
2022-08-18T20:30:32.502Z,5.18
2022-08-18T20:33:12.437Z,5.88
2022-08-18T20:35:45.784Z,5.20
2022-08-18T20:38:54.364Z,5.78
2022-08-18T20:41:38.109Z,4.90
2022-08-18T20:44:40.318Z,5.13
2022-08-18T20:47:23.875Z,6.38
2022-08-18T20:50:12.621Z,7.70
2022-08-18T20:52:46.685Z,7.85
2022-08-18T20:55:26.514Z,6.68
2022-08-18T20:58:03.599Z,6.88
2022-08-18T21:00:33.149Z,5.65
2022-08-18T21:03:06.497Z,6.85
2022-08-18T21:05:40.540Z,6.47
2022-08-18T21:08:27.575Z,5.20
2022-08-18T21:10:57.860Z,5.72
2022-08-18T21:13:31.021Z,6.00
2022-08-18T21:15:59.843Z,5.53
2022-08-18T21:18:28.379Z,5.50
2022-08-18T21:20:59.501Z,5.47
2022-08-18T21:23:30.710Z,5.18
2022-08-18T21:26:06.606Z,5.15
2022-08-18T21:28:38.864Z,5.75
2022-08-18T21:33:59.102Z,5.80
2022-08-18T21:36:32.415Z,6.18
2022-08-18T21:39:05.659Z,5.75
2022-08-18T21:41:35.062Z,5.82
2022-08-18T21:44:06.737Z,6.22
2022-08-18T21:46:34.969Z,5.55
2022-08-18T21:49:07.565Z,6.75
2022-08-18T21:51:47.382Z,5.40
2022-08-18T21:54:17.396Z,5.40
2022-08-18T21:56:45.801Z,5.80
2022-08-18T21:59:15.877Z,5.68
2022-08-18T22:01:53.090Z,6.10
2022-08-18T22:04:27.171Z,6.40
2022-08-18T22:06:58.890Z,6.47
2022-08-18T22:09:48.911Z,7.75
2022-08-18T22:12:48.264Z,7.65
2022-08-18T22:15:20.133Z,6.57
2022-08-18T22:17:54.977Z,7.18
2022-08-18T22:20:57.206Z,6.57
2022-08-18T22:23:55.717Z,6.57
2022-08-18T22:26:27.171Z,6.32
2022-08-18T22:28:59.252Z,6.88
2022-08-18T22:31:30.844Z,6.53
2022-08-18T22:34:03.097Z,7.10
2022-08-18T22:39:02.902Z,6.55
2022-08-18T22:41:32.122Z,6.43
2022-08-18T22:44:00.768Z,6.88
2022-08-18T22:46:29.045Z,7.30
2022-08-18T22:48:56.741Z,6.90
2022-08-18T22:51:27.590Z,6.60
2022-08-18T22:53:56.768Z,6.20
2022-08-18T22:56:35.114Z,7.07
2022-08-18T22:59:13.783Z,7.20
2022-08-18T23:01:48.100Z,7.63
2022-08-18T23:04:17.740Z,7.82
2022-08-18T23:06:51.524Z,7.45
2022-08-18T23:09:24.239Z,7.30
2022-08-18T23:11:54.994Z,8.15
2022-08-18T23:14:23.301Z,7.72
2022-08-18T23:16:51.618Z,7.65
2022-08-18T23:19:21.483Z,7.25
2022-08-18T23:21:49.864Z,6.63
2022-08-18T23:24:18.875Z,7.68
2022-08-18T23:26:47.252Z,9.32
2022-08-18T23:29:16.416Z,7.85
2022-08-18T23:31:46.280Z,7.70
2022-08-18T23:34:17.425Z,8.13
2022-08-18T23:36:46.898Z,7.35
2022-08-18T23:39:15.216Z,7.68
2022-08-18T23:41:42.996Z,8.25
2022-08-18T23:44:11.446Z,7.18
2022-08-18T23:46:40.543Z,8.15
2022-08-18T23:49:10.765Z,7.05
2022-08-18T23:51:42.603Z,7.72
2022-08-18T23:54:13.500Z,7.57
2022-08-18T23:56:41.564Z,7.70
2022-08-18T23:59:09.780Z,7.45
